sensor_id;sensor_type;location;lat;lon;timestamp;P1;durP1;ratioP1;P2;durP2;ratioP2
10845;SDS011;5476;51.540;7.186;2023-06-10T00:00:06;9.07;;;8.00;;
10845;SDS011;5476;51.540;7.186;2023-06-10T00:02:38;8.10;;;7.30;;
10845;SDS011;5476;51.540;7.186;2023-06-10T00:05:06;8.15;;;7.40;;
10845;SDS011;5476;51.540;7.186;2023-06-10T00:07:34;12.48;;;7.65;;
10845;SDS011;5476;51.540;7.186;2023-06-10T00:10:03;8.68;;;7.88;;
10845;SDS011;5476;51.540;7.186;2023-06-10T00:12:32;8.98;;;8.00;;
10845;SDS011;5476;51.540;7.186;2023-06-10T00:15:02;10.02;;;8.00;;
10845;SDS011;5476;51.540;7.186;2023-06-10T00:17:29;8.85;;;8.15;;
10845;SDS011;5476;51.540;7.186;2023-06-10T00:19:59;8.50;;;7.65;;
10845;SDS011;5476;51.540;7.186;2023-06-10T00:22:29;9.13;;;7.82;;
10845;SDS011;5476;51.540;7.186;2023-06-10T00:24:57;8.32;;;7.53;;
10845;SDS011;5476;51.540;7.186;2023-06-10T00:27:24;8.77;;;7.97;;
10845;SDS011;5476;51.540;7.186;2023-06-10T00:29:56;9.38;;;8.43;;
10845;SDS011;5476;51.540;7.186;2023-06-10T00:32:23;9.73;;;8.20;;
10845;SDS011;5476;51.540;7.186;2023-06-10T00:34:50;9.88;;;8.85;;
10845;SDS011;5476;51.540;7.186;2023-06-10T00:37:19;9.35;;;8.45;;
10845;SDS011;5476;51.540;7.186;2023-06-10T00:39:46;10.07;;;9.18;;
10845;SDS011;5476;51.540;7.186;2023-06-10T00:42:13;11.13;;;9.90;;
10845;SDS011;5476;51.540;7.186;2023-06-10T00:44:44;9.88;;;8.98;;
10845;SDS011;5476;51.540;7.186;2023-06-10T00:47:11;10.30;;;9.27;;
10845;SDS011;5476;51.540;7.186;2023-06-10T00:49:39;11.50;;;10.18;;
10845;SDS011;5476;51.540;7.186;2023-06-10T00:52:06;10.52;;;9.60;;
10845;SDS011;5476;51.540;7.186;2023-06-10T00:54:36;11.43;;;10.43;;
10845;SDS011;5476;51.540;7.186;2023-06-10T00:57:04;11.63;;;10.48;;
10845;SDS011;5476;51.540;7.186;2023-06-10T00:59:31;11.18;;;10.07;;
10845;SDS011;5476;51.540;7.186;2023-06-10T01:01:58;11.85;;;10.50;;
10845;SDS011;5476;51.540;7.186;2023-06-10T01:04:27;11.32;;;10.13;;
10845;SDS011;5476;51.540;7.186;2023-06-10T01:06:57;11.75;;;10.05;;
10845;SDS011;5476;51.540;7.186;2023-06-10T01:09:32;12.38;;;10.63;;
10845;SDS011;5476;51.540;7.186;2023-06-10T01:12:08;11.90;;;10.70;;
10845;SDS011;5476;51.540;7.186;2023-06-10T01:14:39;11.55;;;10.48;;
10845;SDS011;5476;51.540;7.186;2023-06-10T01:17:10;11.35;;;10.18;;
10845;SDS011;5476;51.540;7.186;2023-06-10T01:19:37;11.27;;;10.15;;
10845;SDS011;5476;51.540;7.186;2023-06-10T01:22:07;11.60;;;10.48;;
10845;SDS011;5476;51.540;7.186;2023-06-10T01:24:35;12.18;;;10.18;;
10845;SDS011;5476;51.540;7.186;2023-06-10T01:27:05;11.85;;;10.73;;
10845;SDS011;5476;51.540;7.186;2023-06-10T01:29:40;11.80;;;9.75;;
10845;SDS011;5476;51.540;7.186;2023-06-10T01:32:12;10.65;;;9.75;;
10845;SDS011;5476;51.540;7.186;2023-06-10T01:34:43;11.85;;;10.40;;
10845;SDS011;5476;51.540;7.186;2023-06-10T01:37:13;12.23;;;10.75;;
10845;SDS011;5476;51.540;7.186;2023-06-10T01:39:44;11.98;;;10.93;;
10845;SDS011;5476;51.540;7.186;2023-06-10T01:42:12;11.55;;;10.52;;
10845;SDS011;5476;51.540;7.186;2023-06-10T01:44:40;12.15;;;11.05;;
10845;SDS011;5476;51.540;7.186;2023-06-10T01:47:07;11.18;;;10.07;;
10845;SDS011;5476;51.540;7.186;2023-06-10T01:49:34;11.45;;;10.25;;
10845;SDS011;5476;51.540;7.186;2023-06-10T01:52:01;12.02;;;10.82;;
10845;SDS011;5476;51.540;7.186;2023-06-10T01:54:30;12.18;;;10.90;;
10845;SDS011;5476;51.540;7.186;2023-06-10T01:56:57;14.43;;;10.48;;
10845;SDS011;5476;51.540;7.186;2023-06-10T01:59:24;14.05;;;10.50;;
10845;SDS011;5476;51.540;7.186;2023-06-10T02:01:51;11.82;;;10.65;;
10845;SDS011;5476;51.540;7.186;2023-06-10T02:04:18;11.65;;;10.20;;
10845;SDS011;5476;51.540;7.186;2023-06-10T02:06:45;11.57;;;10.57;;
10845;SDS011;5476;51.540;7.186;2023-06-10T02:09:13;12.50;;;11.20;;
10845;SDS011;5476;51.540;7.186;2023-06-10T02:11:41;12.93;;;11.60;;
10845;SDS011;5476;51.540;7.186;2023-06-10T02:14:09;13.60;;;12.20;;
10845;SDS011;5476;51.540;7.186;2023-06-10T02:16:36;13.10;;;11.70;;
10845;SDS011;5476;51.540;7.186;2023-06-10T02:19:03;12.90;;;11.63;;
10845;SDS011;5476;51.540;7.186;2023-06-10T02:21:31;12.32;;;11.20;;
10845;SDS011;5476;51.540;7.186;2023-06-10T02:23:59;13.40;;;12.10;;
10845;SDS011;5476;51.540;7.186;2023-06-10T02:26:26;13.90;;;12.50;;
10845;SDS011;5476;51.540;7.186;2023-06-10T02:28:55;13.02;;;11.60;;
10845;SDS011;5476;51.540;7.186;2023-06-10T02:31:22;12.50;;;11.15;;
10845;SDS011;5476;51.540;7.186;2023-06-10T02:33:50;13.70;;;12.15;;
10845;SDS011;5476;51.540;7.186;2023-06-10T02:36:17;12.98;;;11.68;;
10845;SDS011;5476;51.540;7.186;2023-06-10T02:38:46;12.98;;;11.77;;
10845;SDS011;5476;51.540;7.186;2023-06-10T02:41:13;13.15;;;11.85;;
10845;SDS011;5476;51.540;7.186;2023-06-10T02:43:40;13.85;;;12.50;;
10845;SDS011;5476;51.540;7.186;2023-06-10T02:46:09;13.95;;;12.63;;
10845;SDS011;5476;51.540;7.186;2023-06-10T02:48:40;13.15;;;12.05;;
10845;SDS011;5476;51.540;7.186;2023-06-10T02:51:08;15.10;;;12.80;;
10845;SDS011;5476;51.540;7.186;2023-06-10T02:53:35;13.77;;;12.48;;
10845;SDS011;5476;51.540;7.186;2023-06-10T02:56:02;13.45;;;11.95;;
10845;SDS011;5476;51.540;7.186;2023-06-10T02:58:29;15.13;;;12.40;;
10845;SDS011;5476;51.540;7.186;2023-06-10T03:00:56;13.52;;;12.00;;
10845;SDS011;5476;51.540;7.186;2023-06-10T03:03:25;13.68;;;12.27;;
10845;SDS011;5476;51.540;7.186;2023-06-10T03:05:52;13.90;;;12.50;;
10845;SDS011;5476;51.540;7.186;2023-06-10T03:08:20;13.77;;;12.30;;
10845;SDS011;5476;51.540;7.186;2023-06-10T03:10:47;13.43;;;12.02;;
10845;SDS011;5476;51.540;7.186;2023-06-10T03:13:14;14.48;;;12.50;;
10845;SDS011;5476;51.540;7.186;2023-06-10T03:15:41;13.85;;;12.40;;
10845;SDS011;5476;51.540;7.186;2023-06-10T03:18:09;13.75;;;12.45;;
10845;SDS011;5476;51.540;7.186;2023-06-10T03:20:38;13.80;;;12.43;;
10845;SDS011;5476;51.540;7.186;2023-06-10T03:23:05;13.95;;;12.55;;
10845;SDS011;5476;51.540;7.186;2023-06-10T03:25:32;14.32;;;13.02;;
10845;SDS011;5476;51.540;7.186;2023-06-10T03:27:59;15.32;;;13.10;;
10845;SDS011;5476;51.540;7.186;2023-06-10T03:30:26;15.07;;;12.80;;
10845;SDS011;5476;51.540;7.186;2023-06-10T03:32:53;13.90;;;12.38;;
10845;SDS011;5476;51.540;7.186;2023-06-10T03:35:20;16.73;;;13.15;;
10845;SDS011;5476;51.540;7.186;2023-06-10T03:37:49;13.48;;;12.23;;
10845;SDS011;5476;51.540;7.186;2023-06-10T03:40:15;14.18;;;12.77;;
10845;SDS011;5476;51.540;7.186;2023-06-10T03:42:43;13.20;;;12.00;;
10845;SDS011;5476;51.540;7.186;2023-06-10T03:45:10;13.18;;;11.88;;
10845;SDS011;5476;51.540;7.186;2023-06-10T03:47:38;12.85;;;11.65;;
10845;SDS011;5476;51.540;7.186;2023-06-10T03:50:06;12.38;;;11.23;;
10845;SDS011;5476;51.540;7.186;2023-06-10T03:52:34;13.38;;;11.25;;
10845;SDS011;5476;51.540;7.186;2023-06-10T03:55:02;13.35;;;11.93;;
10845;SDS011;5476;51.540;7.186;2023-06-10T03:57:30;12.60;;;11.30;;
10845;SDS011;5476;51.540;7.186;2023-06-10T03:59:57;12.52;;;11.38;;
10845;SDS011;5476;51.540;7.186;2023-06-10T04:02:24;14.52;;;11.60;;
10845;SDS011;5476;51.540;7.186;2023-06-10T04:04:51;12.90;;;11.60;;
10845;SDS011;5476;51.540;7.186;2023-06-10T04:07:19;13.00;;;11.25;;
10845;SDS011;5476;51.540;7.186;2023-06-10T04:09:46;12.65;;;11.35;;
10845;SDS011;5476;51.540;7.186;2023-06-10T04:12:14;12.32;;;11.13;;
10845;SDS011;5476;51.540;7.186;2023-06-10T04:14:41;14.23;;;11.13;;
10845;SDS011;5476;51.540;7.186;2023-06-10T04:17:08;15.27;;;10.77;;
10845;SDS011;5476;51.540;7.186;2023-06-10T04:19:36;11.85;;;10.75;;
10845;SDS011;5476;51.540;7.186;2023-06-10T04:22:03;14.35;;;11.38;;
10845;SDS011;5476;51.540;7.186;2023-06-10T04:24:30;13.00;;;11.15;;
10845;SDS011;5476;51.540;7.186;2023-06-10T04:26:57;12.95;;;11.05;;
10845;SDS011;5476;51.540;7.186;2023-06-10T04:29:25;12.68;;;11.07;;
10845;SDS011;5476;51.540;7.186;2023-06-10T04:31:52;12.18;;;10.88;;
10845;SDS011;5476;51.540;7.186;2023-06-10T04:34:19;11.57;;;10.38;;
10845;SDS011;5476;51.540;7.186;2023-06-10T04:36:46;11.55;;;10.30;;
10845;SDS011;5476;51.540;7.186;2023-06-10T04:39:13;11.93;;;10.20;;
10845;SDS011;5476;51.540;7.186;2023-06-10T04:41:42;11.35;;;10.20;;
10845;SDS011;5476;51.540;7.186;2023-06-10T04:44:09;11.27;;;9.60;;
10845;SDS011;5476;51.540;7.186;2023-06-10T04:46:38;10.98;;;9.93;;
10845;SDS011;5476;51.540;7.186;2023-06-10T04:49:05;12.35;;;10.00;;
10845;SDS011;5476;51.540;7.186;2023-06-10T04:51:32;15.98;;;10.93;;
10845;SDS011;5476;51.540;7.186;2023-06-10T04:53:59;10.77;;;9.63;;
10845;SDS011;5476;51.540;7.186;2023-06-10T04:56:27;11.68;;;10.48;;
10845;SDS011;5476;51.540;7.186;2023-06-10T04:58:55;10.50;;;9.40;;
10845;SDS011;5476;51.540;7.186;2023-06-10T05:01:22;11.43;;;8.93;;
10845;SDS011;5476;51.540;7.186;2023-06-10T05:03:51;9.75;;;8.85;;
10845;SDS011;5476;51.540;7.186;2023-06-10T05:06:18;11.38;;;9.32;;
10845;SDS011;5476;51.540;7.186;2023-06-10T05:08:45;11.77;;;9.82;;
10845;SDS011;5476;51.540;7.186;2023-06-10T05:11:12;11.05;;;8.98;;
10845;SDS011;5476;51.540;7.186;2023-06-10T05:13:41;10.80;;;9.10;;
10845;SDS011;5476;51.540;7.186;2023-06-10T05:16:09;10.73;;;9.57;;
10845;SDS011;5476;51.540;7.186;2023-06-10T05:18:36;11.13;;;9.15;;
10845;SDS011;5476;51.540;7.186;2023-06-10T05:21:04;10.75;;;9.65;;
10845;SDS011;5476;51.540;7.186;2023-06-10T05:23:31;9.93;;;8.93;;
10845;SDS011;5476;51.540;7.186;2023-06-10T05:25:58;11.23;;;9.32;;
10845;SDS011;5476;51.540;7.186;2023-06-10T05:28:27;11.35;;;9.05;;
10845;SDS011;5476;51.540;7.186;2023-06-10T05:30:54;9.40;;;8.45;;
10845;SDS011;5476;51.540;7.186;2023-06-10T05:33:21;9.25;;;8.30;;
10845;SDS011;5476;51.540;7.186;2023-06-10T05:35:48;9.50;;;8.50;;
10845;SDS011;5476;51.540;7.186;2023-06-10T05:38:16;10.18;;;8.70;;
10845;SDS011;5476;51.540;7.186;2023-06-10T05:40:43;8.98;;;8.07;;
10845;SDS011;5476;51.540;7.186;2023-06-10T05:43:10;9.30;;;8.18;;
10845;SDS011;5476;51.540;7.186;2023-06-10T05:45:37;9.80;;;8.65;;
10845;SDS011;5476;51.540;7.186;2023-06-10T05:48:05;10.75;;;7.90;;
10845;SDS011;5476;51.540;7.186;2023-06-10T05:50:33;8.27;;;7.13;;
10845;SDS011;5476;51.540;7.186;2023-06-10T05:53:03;26.65;;;9.60;;
10845;SDS011;5476;51.540;7.186;2023-06-10T05:55:33;53.38;;;12.98;;
10845;SDS011;5476;51.540;7.186;2023-06-10T05:58:01;21.52;;;9.13;;
10845;SDS011;5476;51.540;7.186;2023-06-10T06:00:28;83.50;;;16.63;;
10845;SDS011;5476;51.540;7.186;2023-06-10T06:02:55;9.48;;;7.20;;
10845;SDS011;5476;51.540;7.186;2023-06-10T06:05:24;10.77;;;7.25;;
10845;SDS011;5476;51.540;7.186;2023-06-10T06:07:50;17.83;;;7.88;;
10845;SDS011;5476;51.540;7.186;2023-06-10T06:10:18;13.98;;;6.88;;
10845;SDS011;5476;51.540;7.186;2023-06-10T06:12:46;14.27;;;7.38;;
10845;SDS011;5476;51.540;7.186;2023-06-10T06:15:13;11.90;;;7.07;;
10845;SDS011;5476;51.540;7.186;2023-06-10T06:17:40;10.80;;;6.95;;
10845;SDS011;5476;51.540;7.186;2023-06-10T06:20:07;11.30;;;7.22;;
10845;SDS011;5476;51.540;7.186;2023-06-10T06:22:34;19.13;;;7.25;;
10845;SDS011;5476;51.540;7.186;2023-06-10T06:25:01;8.27;;;6.50;;
10845;SDS011;5476;51.540;7.186;2023-06-10T06:27:28;9.20;;;5.75;;
10845;SDS011;5476;51.540;7.186;2023-06-10T06:29:57;7.28;;;5.72;;
10845;SDS011;5476;51.540;7.186;2023-06-10T06:32:24;7.70;;;5.78;;
10845;SDS011;5476;51.540;7.186;2023-06-10T06:34:52;7.80;;;6.00;;
10845;SDS011;5476;51.540;7.186;2023-06-10T06:37:20;6.03;;;5.25;;
10845;SDS011;5476;51.540;7.186;2023-06-10T06:39:49;8.68;;;5.82;;
10845;SDS011;5476;51.540;7.186;2023-06-10T06:42:16;6.60;;;5.85;;
10845;SDS011;5476;51.540;7.186;2023-06-10T06:44:44;8.95;;;5.70;;
10845;SDS011;5476;51.540;7.186;2023-06-10T06:47:12;7.75;;;5.30;;
10845;SDS011;5476;51.540;7.186;2023-06-10T06:49:39;6.75;;;5.72;;
10845;SDS011;5476;51.540;7.186;2023-06-10T06:52:06;8.65;;;5.82;;
10845;SDS011;5476;51.540;7.186;2023-06-10T06:54:34;6.00;;;4.97;;
10845;SDS011;5476;51.540;7.186;2023-06-10T06:57:01;8.18;;;5.30;;
10845;SDS011;5476;51.540;7.186;2023-06-10T06:59:28;7.50;;;4.85;;
10845;SDS011;5476;51.540;7.186;2023-06-10T07:01:55;7.78;;;5.40;;
10845;SDS011;5476;51.540;7.186;2023-06-10T07:04:23;8.40;;;5.32;;
10845;SDS011;5476;51.540;7.186;2023-06-10T07:06:50;8.93;;;5.63;;
10845;SDS011;5476;51.540;7.186;2023-06-10T07:09:18;6.07;;;5.00;;
10845;SDS011;5476;51.540;7.186;2023-06-10T07:11:45;6.45;;;5.65;;
10845;SDS011;5476;51.540;7.186;2023-06-10T07:14:12;6.47;;;5.53;;
10845;SDS011;5476;51.540;7.186;2023-06-10T07:16:39;7.97;;;5.28;;
10845;SDS011;5476;51.540;7.186;2023-06-10T07:19:06;7.38;;;5.15;;
10845;SDS011;5476;51.540;7.186;2023-06-10T07:21:35;9.35;;;5.40;;
10845;SDS011;5476;51.540;7.186;2023-06-10T07:24:03;6.05;;;5.45;;
10845;SDS011;5476;51.540;7.186;2023-06-10T07:26:32;7.15;;;4.82;;
10845;SDS011;5476;51.540;7.186;2023-06-10T07:29:00;7.65;;;5.32;;
10845;SDS011;5476;51.540;7.186;2023-06-10T07:31:27;7.47;;;4.95;;
10845;SDS011;5476;51.540;7.186;2023-06-10T07:33:54;7.53;;;4.90;;
10845;SDS011;5476;51.540;7.186;2023-06-10T07:36:21;7.20;;;5.15;;
10845;SDS011;5476;51.540;7.186;2023-06-10T07:38:50;6.78;;;5.13;;
10845;SDS011;5476;51.540;7.186;2023-06-10T07:41:17;6.40;;;5.13;;
10845;SDS011;5476;51.540;7.186;2023-06-10T07:43:44;5.78;;;4.93;;
10845;SDS011;5476;51.540;7.186;2023-06-10T07:46:11;8.32;;;5.20;;
10845;SDS011;5476;51.540;7.186;2023-06-10T07:48:38;6.07;;;4.78;;
10845;SDS011;5476;51.540;7.186;2023-06-10T07:51:06;6.78;;;5.28;;
10845;SDS011;5476;51.540;7.186;2023-06-10T07:53:33;6.50;;;5.22;;
10845;SDS011;5476;51.540;7.186;2023-06-10T07:56:01;7.68;;;4.80;;
10845;SDS011;5476;51.540;7.186;2023-06-10T07:58:28;6.25;;;5.15;;
10845;SDS011;5476;51.540;7.186;2023-06-10T08:00:56;5.80;;;5.22;;
10845;SDS011;5476;51.540;7.186;2023-06-10T08:03:23;5.95;;;4.50;;
10845;SDS011;5476;51.540;7.186;2023-06-10T08:05:50;10.77;;;5.07;;
10845;SDS011;5476;51.540;7.186;2023-06-10T08:08:17;7.22;;;5.28;;
10845;SDS011;5476;51.540;7.186;2023-06-10T08:10:45;7.28;;;5.18;;
10845;SDS011;5476;51.540;7.186;2023-06-10T08:13:13;7.00;;;4.75;;
10845;SDS011;5476;51.540;7.186;2023-06-10T08:15:40;8.48;;;5.32;;
10845;SDS011;5476;51.540;7.186;2023-06-10T08:18:08;5.78;;;5.05;;
10845;SDS011;5476;51.540;7.186;2023-06-10T08:20:35;5.60;;;4.97;;
10845;SDS011;5476;51.540;7.186;2023-06-10T08:23:02;5.75;;;5.15;;
10845;SDS011;5476;51.540;7.186;2023-06-10T08:25:29;6.18;;;5.20;;
10845;SDS011;5476;51.540;7.186;2023-06-10T08:27:56;6.55;;;4.53;;
10845;SDS011;5476;51.540;7.186;2023-06-10T08:33:44;5.68;;;4.82;;
10845;SDS011;5476;51.540;7.186;2023-06-10T08:36:15;6.18;;;4.90;;
10845;SDS011;5476;51.540;7.186;2023-06-10T08:38:45;6.32;;;4.80;;
10845;SDS011;5476;51.540;7.186;2023-06-10T08:41:12;19.45;;;15.38;;
10845;SDS011;5476;51.540;7.186;2023-06-10T08:43:44;8.25;;;5.20;;
10845;SDS011;5476;51.540;7.186;2023-06-10T08:46:13;7.03;;;4.85;;
10845;SDS011;5476;51.540;7.186;2023-06-10T08:48:42;6.20;;;5.22;;
10845;SDS011;5476;51.540;7.186;2023-06-10T08:51:10;13.18;;;9.38;;
10845;SDS011;5476;51.540;7.186;2023-06-10T08:53:38;8.80;;;5.28;;
10845;SDS011;5476;51.540;7.186;2023-06-10T08:56:13;8.65;;;5.22;;
10845;SDS011;5476;51.540;7.186;2023-06-10T08:58:40;7.25;;;5.10;;
10845;SDS011;5476;51.540;7.186;2023-06-10T09:01:09;5.30;;;4.53;;
10845;SDS011;5476;51.540;7.186;2023-06-10T09:03:37;7.30;;;5.45;;
10845;SDS011;5476;51.540;7.186;2023-06-10T09:06:05;7.65;;;4.88;;
10845;SDS011;5476;51.540;7.186;2023-06-10T09:08:33;5.30;;;4.80;;
10845;SDS011;5476;51.540;7.186;2023-06-10T09:11:01;6.97;;;5.10;;
10845;SDS011;5476;51.540;7.186;2023-06-10T09:13:28;10.88;;;6.45;;
10845;SDS011;5476;51.540;7.186;2023-06-10T09:15:55;7.57;;;5.55;;
10845;SDS011;5476;51.540;7.186;2023-06-10T09:18:26;7.35;;;5.15;;
10845;SDS011;5476;51.540;7.186;2023-06-10T09:20:53;8.75;;;5.43;;
10845;SDS011;5476;51.540;7.186;2023-06-10T09:23:22;5.63;;;4.97;;
10845;SDS011;5476;51.540;7.186;2023-06-10T09:25:55;8.65;;;5.32;;
10845;SDS011;5476;51.540;7.186;2023-06-10T09:28:24;12.07;;;10.07;;
10845;SDS011;5476;51.540;7.186;2023-06-10T09:31:01;7.38;;;5.85;;
10845;SDS011;5476;51.540;7.186;2023-06-10T09:33:29;9.82;;;5.57;;
10845;SDS011;5476;51.540;7.186;2023-06-10T09:35:56;9.20;;;5.95;;
10845;SDS011;5476;51.540;7.186;2023-06-10T09:38:30;6.72;;;5.80;;
10845;SDS011;5476;51.540;7.186;2023-06-10T09:40:58;8.40;;;5.80;;
10845;SDS011;5476;51.540;7.186;2023-06-10T09:43:38;8.30;;;5.63;;
10845;SDS011;5476;51.540;7.186;2023-06-10T09:46:06;7.32;;;5.53;;
10845;SDS011;5476;51.540;7.186;2023-06-10T09:48:39;8.55;;;5.20;;
10845;SDS011;5476;51.540;7.186;2023-06-10T09:51:08;6.45;;;5.07;;
10845;SDS011;5476;51.540;7.186;2023-06-10T09:53:37;5.57;;;5.07;;
10845;SDS011;5476;51.540;7.186;2023-06-10T09:56:04;8.27;;;5.30;;
10845;SDS011;5476;51.540;7.186;2023-06-10T09:58:35;8.52;;;5.35;;
10845;SDS011;5476;51.540;7.186;2023-06-10T10:01:11;7.30;;;5.35;;
10845;SDS011;5476;51.540;7.186;2023-06-10T10:03:45;8.07;;;5.45;;
10845;SDS011;5476;51.540;7.186;2023-06-10T10:06:19;5.43;;;4.93;;
10845;SDS011;5476;51.540;7.186;2023-06-10T10:08:58;16.25;;;11.07;;
10845;SDS011;5476;51.540;7.186;2023-06-10T10:11:44;10.32;;;5.30;;
10845;SDS011;5476;51.540;7.186;2023-06-10T10:14:12;7.68;;;5.22;;
10845;SDS011;5476;51.540;7.186;2023-06-10T10:16:42;5.97;;;5.07;;
10845;SDS011;5476;51.540;7.186;2023-06-10T10:19:11;7.18;;;5.13;;
10845;SDS011;5476;51.540;7.186;2023-06-10T10:21:43;5.57;;;5.07;;
10845;SDS011;5476;51.540;7.186;2023-06-10T10:24:20;6.18;;;5.50;;
10845;SDS011;5476;51.540;7.186;2023-06-10T10:26:50;7.20;;;5.60;;
10845;SDS011;5476;51.540;7.186;2023-06-10T10:29:20;6.90;;;5.35;;
10845;SDS011;5476;51.540;7.186;2023-06-10T10:31:50;7.65;;;5.47;;
10845;SDS011;5476;51.540;7.186;2023-06-10T10:34:19;8.60;;;5.80;;
10845;SDS011;5476;51.540;7.186;2023-06-10T10:36:51;5.88;;;5.28;;
10845;SDS011;5476;51.540;7.186;2023-06-10T10:39:19;7.78;;;5.75;;
10845;SDS011;5476;51.540;7.186;2023-06-10T10:41:47;6.25;;;5.65;;
10845;SDS011;5476;51.540;7.186;2023-06-10T10:44:15;7.07;;;5.72;;
10845;SDS011;5476;51.540;7.186;2023-06-10T10:46:43;8.82;;;5.70;;
10845;SDS011;5476;51.540;7.186;2023-06-10T10:49:13;7.40;;;6.05;;
10845;SDS011;5476;51.540;7.186;2023-06-10T10:51:54;6.10;;;5.50;;
10845;SDS011;5476;51.540;7.186;2023-06-10T10:54:29;6.78;;;5.57;;
10845;SDS011;5476;51.540;7.186;2023-06-10T10:57:09;6.78;;;5.32;;
10845;SDS011;5476;51.540;7.186;2023-06-10T11:02:33;8.63;;;5.80;;
10845;SDS011;5476;51.540;7.186;2023-06-10T11:11:19;6.95;;;6.25;;
10845;SDS011;5476;51.540;7.186;2023-06-10T11:16:38;6.68;;;5.95;;
10845;SDS011;5476;51.540;7.186;2023-06-10T11:19:10;6.68;;;6.07;;
10845;SDS011;5476;51.540;7.186;2023-06-10T11:22:15;6.63;;;5.95;;
10845;SDS011;5476;51.540;7.186;2023-06-10T11:24:46;8.20;;;6.35;;
10845;SDS011;5476;51.540;7.186;2023-06-10T11:27:15;7.10;;;6.40;;
10845;SDS011;5476;51.540;7.186;2023-06-10T11:29:57;6.88;;;6.15;;
10845;SDS011;5476;51.540;7.186;2023-06-10T11:32:25;9.55;;;6.30;;
10845;SDS011;5476;51.540;7.186;2023-06-10T11:34:56;8.40;;;6.72;;
10845;SDS011;5476;51.540;7.186;2023-06-10T11:37:23;7.45;;;6.65;;
10845;SDS011;5476;51.540;7.186;2023-06-10T11:39:51;7.90;;;5.93;;
10845;SDS011;5476;51.540;7.186;2023-06-10T11:42:20;8.93;;;6.93;;
10845;SDS011;5476;51.540;7.186;2023-06-10T11:44:48;7.60;;;6.85;;
10845;SDS011;5476;51.540;7.186;2023-06-10T11:47:16;8.65;;;6.53;;
10845;SDS011;5476;51.540;7.186;2023-06-10T11:49:43;6.95;;;6.05;;
10845;SDS011;5476;51.540;7.186;2023-06-10T11:52:10;7.05;;;6.47;;
10845;SDS011;5476;51.540;7.186;2023-06-10T11:54:41;8.25;;;6.18;;
10845;SDS011;5476;51.540;7.186;2023-06-10T11:57:08;7.53;;;6.18;;
10845;SDS011;5476;51.540;7.186;2023-06-10T11:59:36;6.88;;;6.10;;
10845;SDS011;5476;51.540;7.186;2023-06-10T12:02:05;7.53;;;6.35;;
10845;SDS011;5476;51.540;7.186;2023-06-10T12:04:33;6.65;;;6.05;;
10845;SDS011;5476;51.540;7.186;2023-06-10T12:07:03;7.30;;;6.60;;
10845;SDS011;5476;51.540;7.186;2023-06-10T12:09:30;7.18;;;6.45;;
10845;SDS011;5476;51.540;7.186;2023-06-10T12:11:58;7.55;;;6.85;;
10845;SDS011;5476;51.540;7.186;2023-06-10T12:17:24;13.95;;;6.63;;
10845;SDS011;5476;51.540;7.186;2023-06-10T12:20:03;7.25;;;5.97;;
10845;SDS011;5476;51.540;7.186;2023-06-10T12:22:36;7.53;;;6.45;;
10845;SDS011;5476;51.540;7.186;2023-06-10T12:25:04;6.72;;;6.22;;
10845;SDS011;5476;51.540;7.186;2023-06-10T12:27:33;9.05;;;7.28;;
10845;SDS011;5476;51.540;7.186;2023-06-10T12:30:02;6.45;;;5.85;;
10845;SDS011;5476;51.540;7.186;2023-06-10T12:32:38;12.55;;;6.35;;
10845;SDS011;5476;51.540;7.186;2023-06-10T12:35:07;6.65;;;6.10;;
10845;SDS011;5476;51.540;7.186;2023-06-10T12:37:37;7.93;;;6.75;;
10845;SDS011;5476;51.540;7.186;2023-06-10T12:40:04;7.97;;;6.45;;
10845;SDS011;5476;51.540;7.186;2023-06-10T12:42:33;6.78;;;6.15;;
10845;SDS011;5476;51.540;7.186;2023-06-10T12:45:04;7.60;;;6.53;;
10845;SDS011;5476;51.540;7.186;2023-06-10T12:47:34;7.00;;;6.45;;
10845;SDS011;5476;51.540;7.186;2023-06-10T12:50:04;6.90;;;6.30;;
10845;SDS011;5476;51.540;7.186;2023-06-10T12:52:31;7.22;;;6.53;;
10845;SDS011;5476;51.540;7.186;2023-06-10T12:54:59;7.43;;;6.70;;
10845;SDS011;5476;51.540;7.186;2023-06-10T12:57:26;7.03;;;6.32;;
10845;SDS011;5476;51.540;7.186;2023-06-10T12:59:53;6.95;;;6.38;;
10845;SDS011;5476;51.540;7.186;2023-06-10T13:02:26;7.28;;;6.30;;
10845;SDS011;5476;51.540;7.186;2023-06-10T13:04:53;7.55;;;6.75;;
10845;SDS011;5476;51.540;7.186;2023-06-10T13:07:21;7.40;;;6.70;;
10845;SDS011;5476;51.540;7.186;2023-06-10T13:09:48;7.63;;;6.80;;
10845;SDS011;5476;51.540;7.186;2023-06-10T13:12:18;7.00;;;6.30;;
10845;SDS011;5476;51.540;7.186;2023-06-10T13:14:45;6.93;;;6.32;;
10845;SDS011;5476;51.540;7.186;2023-06-10T13:17:13;7.28;;;6.57;;
10845;SDS011;5476;51.540;7.186;2023-06-10T13:19:42;6.65;;;6.15;;
10845;SDS011;5476;51.540;7.186;2023-06-10T13:22:09;13.93;;;6.80;;
10845;SDS011;5476;51.540;7.186;2023-06-10T13:24:38;6.90;;;6.30;;
10845;SDS011;5476;51.540;7.186;2023-06-10T13:27:05;7.43;;;6.60;;
10845;SDS011;5476;51.540;7.186;2023-06-10T13:29:33;7.15;;;6.50;;
10845;SDS011;5476;51.540;7.186;2023-06-10T13:32:00;7.65;;;6.90;;
10845;SDS011;5476;51.540;7.186;2023-06-10T13:34:27;7.05;;;6.45;;
10845;SDS011;5476;51.540;7.186;2023-06-10T13:36:56;8.82;;;6.40;;
10845;SDS011;5476;51.540;7.186;2023-06-10T13:39:22;8.07;;;7.10;;
10845;SDS011;5476;51.540;7.186;2023-06-10T13:41:50;7.38;;;6.68;;
10845;SDS011;5476;51.540;7.186;2023-06-10T13:44:18;6.55;;;6.05;;
10845;SDS011;5476;51.540;7.186;2023-06-10T13:46:44;6.93;;;6.32;;
10845;SDS011;5476;51.540;7.186;2023-06-10T13:49:11;7.30;;;6.60;;
10845;SDS011;5476;51.540;7.186;2023-06-10T13:51:39;8.50;;;6.50;;
10845;SDS011;5476;51.540;7.186;2023-06-10T13:54:07;7.35;;;6.72;;
10845;SDS011;5476;51.540;7.186;2023-06-10T13:56:34;7.43;;;6.72;;
10845;SDS011;5476;51.540;7.186;2023-06-10T13:59:03;6.90;;;6.30;;
10845;SDS011;5476;51.540;7.186;2023-06-10T14:01:30;7.72;;;6.72;;
10845;SDS011;5476;51.540;7.186;2023-06-10T14:03:57;7.03;;;6.40;;
10845;SDS011;5476;51.540;7.186;2023-06-10T14:06:24;7.22;;;6.50;;
10845;SDS011;5476;51.540;7.186;2023-06-10T14:08:51;7.35;;;6.68;;
10845;SDS011;5476;51.540;7.186;2023-06-10T14:11:21;7.32;;;6.50;;
10845;SDS011;5476;51.540;7.186;2023-06-10T14:13:48;9.38;;;6.43;;
10845;SDS011;5476;51.540;7.186;2023-06-10T14:16:18;6.97;;;6.38;;
10845;SDS011;5476;51.540;7.186;2023-06-10T14:18:45;7.05;;;6.50;;
10845;SDS011;5476;51.540;7.186;2023-06-10T14:21:11;6.85;;;6.20;;
10845;SDS011;5476;51.540;7.186;2023-06-10T14:23:39;7.13;;;6.60;;
10845;SDS011;5476;51.540;7.186;2023-06-10T14:26:06;6.88;;;6.28;;
10845;SDS011;5476;51.540;7.186;2023-06-10T14:28:35;7.53;;;6.82;;
10845;SDS011;5476;51.540;7.186;2023-06-10T14:31:02;7.22;;;6.47;;
10845;SDS011;5476;51.540;7.186;2023-06-10T14:33:29;7.13;;;6.53;;
10845;SDS011;5476;51.540;7.186;2023-06-10T14:35:57;6.72;;;6.13;;
10845;SDS011;5476;51.540;7.186;2023-06-10T14:38:24;7.53;;;6.80;;
10845;SDS011;5476;51.540;7.186;2023-06-10T14:40:51;7.20;;;6.50;;
10845;SDS011;5476;51.540;7.186;2023-06-10T14:43:18;7.28;;;6.40;;
10845;SDS011;5476;51.540;7.186;2023-06-10T14:45:46;7.65;;;6.85;;
10845;SDS011;5476;51.540;7.186;2023-06-10T14:48:16;7.07;;;6.38;;
10845;SDS011;5476;51.540;7.186;2023-06-10T14:50:42;7.05;;;6.45;;
10845;SDS011;5476;51.540;7.186;2023-06-10T14:53:11;7.15;;;6.38;;
10845;SDS011;5476;51.540;7.186;2023-06-10T14:55:39;6.93;;;6.22;;
10845;SDS011;5476;51.540;7.186;2023-06-10T14:58:06;7.05;;;6.45;;
10845;SDS011;5476;51.540;7.186;2023-06-10T15:00:32;7.22;;;6.63;;
10845;SDS011;5476;51.540;7.186;2023-06-10T15:03:01;6.65;;;6.05;;
10845;SDS011;5476;51.540;7.186;2023-06-10T15:05:28;6.63;;;6.03;;
10845;SDS011;5476;51.540;7.186;2023-06-10T15:07:55;7.25;;;6.65;;
10845;SDS011;5476;51.540;7.186;2023-06-10T15:10:22;6.70;;;6.20;;
10845;SDS011;5476;51.540;7.186;2023-06-10T15:12:49;7.03;;;6.28;;
10845;SDS011;5476;51.540;7.186;2023-06-10T15:15:20;7.38;;;6.78;;
10845;SDS011;5476;51.540;7.186;2023-06-10T15:17:47;7.32;;;6.20;;